PWSweather.com
Personal Weather Stations
Station Observations

SkegnessGB

Lat: 53.147585, Lon: 0.345774

Elevation: 18

Station Type: Fine Offset WH3080

http://www.skegnessweather.info/

High Low Average
Temperature 53.2°F11.8°C 36.1°F2.3°C 42.7°F5.9°C
Dew Point 42.9°F6.1°C 35.4°F1.9°C 38.0°F3.3°C
Winds 11.1 mph 17.9 kmh 3.6 mph 5.8 kmh 7.0 mph S11.3 kmh S
Wind Gusts 17.5 mph28.2 kmh 4.2 mph6.8 kmh 9.0 mph14.5 kmh
Humidity 97% 63% 85%
Pressure 29.78 in1008.5 mb 29.37 in994.6 mb -
Precipitation 0.00 in0.0 mm - -
Hour Temp Dew Point Humidity Winds Wind Gusts Pressure Precip Precip Rate Daily Precip Total
12:00 AM 39.6°F4.2°C 36.9°F2.7°C 90% 7.2 mph SSE11.6 kmh SSE 6.6 mph10.6 kmh 29.77 in1008.1 mb 0.00 in0.0 mm 0.00 in0.0 mm 0.00 in0.0 mm
12:10 AM 39.4°F4.1°C 37.0°F2.8°C 91% 8.1 mph SE13.0 kmh SE 8.4 mph13.5 kmh 29.78 in1008.5 mb 0.00 in0.0 mm 0.00 in0.0 mm 0.00 in0.0 mm
12:20 AM 39.2°F4.0°C 37.1°F2.8°C 92% 8.6 mph SSE13.8 kmh SSE 8.4 mph13.5 kmh 29.77 in1008.1 mb 0.00 in0.0 mm 0.00 in0.0 mm 0.00 in0.0 mm
12:30 AM 39.2°F4.0°C 37.1°F2.8°C 92% 8.9 mph S14.3 kmh S 10.8 mph17.4 kmh 29.77 in1008.1 mb 0.00 in0.0 mm 0.00 in0.0 mm 0.00 in0.0 mm
12:40 AM 39.2°F4.0°C 37.1°F2.8°C 92% 8.1 mph S13.0 kmh S 8.4 mph13.5 kmh 29.77 in1008.1 mb 0.00 in0.0 mm 0.00 in0.0 mm 0.00 in0.0 mm
12:50 AM 39.4°F4.1°C 37.2°F2.9°C 92% 9.9 mph SE15.9 kmh SE 11.8 mph19.0 kmh 29.78 in1008.5 mb 0.00 in0.0 mm 0.00 in0.0 mm 0.00 in0.0 mm
01:00 AM 39.6°F4.2°C 37.4°F3.0°C 92% 10.1 mph S16.3 kmh S 10.1 mph16.3 kmh 29.77 in1008.1 mb 0.00 in0.0 mm 0.00 in0.0 mm 0.00 in0.0 mm
01:10 AM 39.7°F4.3°C 37.9°F3.3°C 93% 9.9 mph S15.9 kmh S 8.4 mph13.5 kmh 29.77 in1008.1 mb 0.00 in0.0 mm 0.00 in0.0 mm 0.00 in0.0 mm
01:20 AM 39.7°F4.3°C 37.9°F3.3°C 93% 9.3 mph S15.0 kmh S 10.1 mph16.3 kmh 29.77 in1008.1 mb 0.00 in0.0 mm 0.00 in0.0 mm 0.00 in0.0 mm
01:30 AM 39.4°F4.1°C 37.5°F3.1°C 93% 9.8 mph S15.8 kmh S 10.8 mph17.4 kmh 29.77 in1008.1 mb 0.00 in0.0 mm 0.00 in0.0 mm 0.00 in0.0 mm
01:40 AM 39.0°F3.9°C 37.2°F2.9°C 93% 7.7 mph SSE12.4 kmh SSE 8.4 mph13.5 kmh 29.77 in1008.1 mb 0.00 in0.0 mm 0.00 in0.0 mm 0.00 in0.0 mm
01:50 AM 38.7°F3.7°C 36.8°F2.7°C 93% 7.6 mph SSE12.2 kmh SSE 8.4 mph13.5 kmh 29.77 in1008.1 mb 0.00 in0.0 mm 0.00 in0.0 mm 0.00 in0.0 mm
02:00 AM 38.5°F3.6°C 36.6°F2.6°C 93% 7.2 mph SSE11.6 kmh SSE 7.6 mph12.2 kmh 29.76 in1007.8 mb 0.00 in0.0 mm 0.00 in0.0 mm 0.00 in0.0 mm
02:10 AM 38.3°F3.5°C 36.7°F2.6°C 94% 6.9 mph S11.1 kmh S 7.6 mph12.2 kmh 29.75 in1007.5 mb 0.00 in0.0 mm 0.00 in0.0 mm 0.00 in0.0 mm
02:20 AM 37.9°F3.3°C 36.4°F2.4°C 94% 7.6 mph S12.2 kmh S 8.4 mph13.5 kmh 29.75 in1007.5 mb 0.00 in0.0 mm 0.00 in0.0 mm 0.00 in0.0 mm
02:30 AM 37.8°F3.2°C 36.2°F2.3°C 94% 7.2 mph S11.6 kmh S 8.4 mph13.5 kmh 29.75 in1007.5 mb 0.00 in0.0 mm 0.00 in0.0 mm 0.00 in0.0 mm
02:40 AM 37.6°F3.1°C 36.0°F2.2°C 94% 7.4 mph SSE11.9 kmh SSE 6.6 mph10.6 kmh 29.75 in1007.5 mb 0.00 in0.0 mm 0.00 in0.0 mm 0.00 in0.0 mm
02:50 AM 37.4°F3.0°C 36.1°F2.3°C 95% 6.0 mph S9.7 kmh S 6.6 mph10.6 kmh 29.75 in1007.5 mb 0.00 in0.0 mm 0.00 in0.0 mm 0.00 in0.0 mm
03:00 AM 37.2°F2.9°C 35.9°F2.2°C 95% 7.2 mph S11.6 kmh S 7.6 mph12.2 kmh 29.75 in1007.5 mb 0.00 in0.0 mm 0.00 in0.0 mm 0.00 in0.0 mm
03:10 AM 37.2°F2.9°C 35.9°F2.2°C 95% 7.1 mph SSW11.4 kmh SSW 6.6 mph10.6 kmh 29.74 in1007.1 mb 0.00 in0.0 mm 0.00 in0.0 mm 0.00 in0.0 mm
03:20 AM 37.2°F2.9°C 35.9°F2.2°C 95% 6.5 mph S10.5 kmh S 8.4 mph13.5 kmh 29.74 in1007.1 mb 0.00 in0.0 mm 0.00 in0.0 mm 0.00 in0.0 mm
03:30 AM 37.0°F2.8°C 36.0°F2.2°C 96% 5.3 mph SSE8.5 kmh SSE 4.9 mph7.9 kmh 29.74 in1007.1 mb 0.00 in0.0 mm 0.00 in0.0 mm 0.00 in0.0 mm
03:40 AM 37.0°F2.8°C 36.0°F2.2°C 96% 5.7 mph S9.2 kmh S 5.9 mph9.5 kmh 29.73 in1006.8 mb 0.00 in0.0 mm 0.00 in0.0 mm 0.00 in0.0 mm
03:50 AM 36.9°F2.7°C 35.8°F2.1°C 96% 6.1 mph S9.8 kmh S 6.6 mph10.6 kmh 29.74 in1007.1 mb 0.00 in0.0 mm 0.00 in0.0 mm 0.00 in0.0 mm
04:00 AM 36.7°F2.6°C 35.6°F2.0°C 96% 6.7 mph S10.8 kmh S 8.4 mph13.5 kmh 29.73 in1006.8 mb 0.00 in0.0 mm 0.00 in0.0 mm 0.00 in0.0 mm
04:10 AM 36.5°F2.5°C 35.5°F1.9°C 96% 5.9 mph S9.5 kmh S 5.9 mph9.5 kmh 29.73 in1006.8 mb 0.00 in0.0 mm 0.00 in0.0 mm 0.00 in0.0 mm
04:20 AM 36.5°F2.5°C 35.5°F1.9°C 96% 3.6 mph SE5.8 kmh SE 4.2 mph6.8 kmh 29.73 in1006.8 mb 0.00 in0.0 mm 0.00 in0.0 mm 0.00 in0.0 mm
04:30 AM 36.5°F2.5°C 35.5°F1.9°C 96% 5.4 mph SSE8.7 kmh SSE 5.9 mph9.5 kmh 29.73 in1006.8 mb 0.00 in0.0 mm 0.00 in0.0 mm 0.00 in0.0 mm
04:40 AM 36.5°F2.5°C 35.7°F2.1°C 97% 6.3 mph S10.1 kmh S 7.6 mph12.2 kmh 29.73 in1006.8 mb 0.00 in0.0 mm 0.00 in0.0 mm 0.00 in0.0 mm
04:50 AM 36.5°F2.5°C 35.7°F2.1°C 97% 7.1 mph S11.4 kmh S 8.4 mph13.5 kmh 29.72 in1006.4 mb 0.00 in0.0 mm 0.00 in0.0 mm 0.00 in0.0 mm
05:00 AM 36.5°F2.5°C 35.7°F2.1°C 97% 7.9 mph S12.7 kmh S 7.6 mph12.2 kmh 29.73 in1006.8 mb 0.00 in0.0 mm 0.00 in0.0 mm 0.00 in0.0 mm
05:10 AM 36.5°F2.5°C 35.7°F2.1°C 97% 10.0 mph S16.1 kmh S 10.1 mph16.3 kmh 29.73 in1006.8 mb 0.00 in0.0 mm 0.00 in0.0 mm 0.00 in0.0 mm
05:20 AM 36.3°F2.4°C 35.6°F2.0°C 97% 9.1 mph SE14.6 kmh SE 8.4 mph13.5 kmh 29.73 in1006.8 mb 0.00 in0.0 mm 0.00 in0.0 mm 0.00 in0.0 mm
05:30 AM 36.3°F2.4°C 35.6°F2.0°C 97% 8.5 mph S13.7 kmh S 10.1 mph16.3 kmh 29.71 in1006.1 mb 0.00 in0.0 mm 0.00 in0.0 mm 0.00 in0.0 mm
05:40 AM 36.1°F2.3°C 35.4°F1.9°C 97% 8.9 mph S14.3 kmh S 10.1 mph16.3 kmh 29.72 in1006.4 mb 0.00 in0.0 mm 0.00 in0.0 mm 0.00 in0.0 mm
05:50 AM 36.1°F2.3°C 35.4°F1.9°C 97% 8.9 mph SSE14.3 kmh SSE 10.8 mph17.4 kmh 29.72 in1006.4 mb 0.00 in0.0 mm 0.00 in0.0 mm 0.00 in0.0 mm
06:00 AM 36.1°F2.3°C 35.4°F1.9°C 97% 9.7 mph S15.6 kmh S 10.8 mph17.4 kmh 29.71 in1006.1 mb 0.00 in0.0 mm 0.00 in0.0 mm 0.00 in0.0 mm
06:10 AM 36.3°F2.4°C 35.6°F2.0°C 97% 10.6 mph S17.1 kmh S 10.1 mph16.3 kmh 29.71 in1006.1 mb 0.00 in0.0 mm 0.00 in0.0 mm 0.00 in0.0 mm
06:20 AM 36.3°F2.4°C 35.6°F2.0°C 97% 9.5 mph S15.3 kmh S 10.1 mph16.3 kmh 29.72 in1006.4 mb 0.00 in0.0 mm 0.00 in0.0 mm 0.00 in0.0 mm
06:30 AM 36.3°F2.4°C 35.6°F2.0°C 97% 8.6 mph S13.8 kmh S 10.1 mph16.3 kmh 29.71 in1006.1 mb 0.00 in0.0 mm 0.00 in0.0 mm 0.00 in0.0 mm
06:40 AM 36.5°F2.5°C 35.7°F2.1°C 97% 8.0 mph SSE12.9 kmh SSE 9.1 mph14.6 kmh 29.71 in1006.1 mb 0.00 in0.0 mm 0.00 in0.0 mm 0.00 in0.0 mm
06:50 AM 36.5°F2.5°C 35.7°F2.1°C 97% 8.9 mph S14.3 kmh S 10.8 mph17.4 kmh 29.71 in1006.1 mb 0.00 in0.0 mm 0.00 in0.0 mm 0.00 in0.0 mm
07:00 AM 36.7°F2.6°C 35.9°F2.2°C 97% 9.1 mph S14.6 kmh S 9.1 mph14.6 kmh 29.71 in1006.1 mb 0.00 in0.0 mm 0.00 in0.0 mm 0.00 in0.0 mm
07:10 AM 36.9°F2.7°C 36.1°F2.3°C 97% 7.7 mph S12.4 kmh S 7.6 mph12.2 kmh 29.71 in1006.1 mb 0.00 in0.0 mm 0.00 in0.0 mm 0.00 in0.0 mm
07:20 AM 37.0°F2.8°C 36.3°F2.4°C 97% 7.4 mph SSE11.9 kmh SSE 8.4 mph13.5 kmh 29.72 in1006.4 mb 0.00 in0.0 mm 0.00 in0.0 mm 0.00 in0.0 mm
07:30 AM 37.4°F3.0°C 36.6°F2.6°C 97% 4.9 mph S7.9 kmh S 6.6 mph10.6 kmh 29.71 in1006.1 mb 0.00 in0.0 mm 0.00 in0.0 mm 0.00 in0.0 mm
07:40 AM 37.6°F3.1°C 36.8°F2.7°C 97% 5.2 mph SSE8.4 kmh SSE 7.6 mph12.2 kmh 29.71 in1006.1 mb 0.00 in0.0 mm 0.00 in0.0 mm 0.00 in0.0 mm
07:50 AM 37.9°F3.3°C 36.9°F2.7°C 96% 6.1 mph SSE9.8 kmh SSE 8.4 mph13.5 kmh 29.71 in1006.1 mb 0.00 in0.0 mm 0.00 in0.0 mm 0.00 in0.0 mm
08:00 AM 38.3°F3.5°C 37.3°F2.9°C 96% 7.1 mph SE11.4 kmh SE 9.1 mph14.6 kmh 29.71 in1006.1 mb 0.00 in0.0 mm 0.00 in0.0 mm 0.00 in0.0 mm
08:10 AM 38.8°F3.8°C 37.5°F3.1°C 95% 4.3 mph SW6.9 kmh SW 7.6 mph12.2 kmh 29.70 in1005.8 mb 0.00 in0.0 mm 0.00 in0.0 mm 0.00 in0.0 mm
08:20 AM 39.4°F4.1°C 38.1°F3.4°C 95% 5.6 mph S9.0 kmh S 8.4 mph13.5 kmh 29.70 in1005.8 mb 0.00 in0.0 mm 0.00 in0.0 mm 0.00 in0.0 mm
08:30 AM 39.9°F4.4°C 38.3°F3.5°C 94% 5.0 mph W8.0 kmh W 10.1 mph16.3 kmh 29.70 in1005.8 mb 0.00 in0.0 mm 0.00 in0.0 mm 0.00 in0.0 mm
08:40 AM 40.1°F4.5°C 38.2°F3.4°C 93% 5.3 mph S8.5 kmh S 7.6 mph12.2 kmh 29.70 in1005.8 mb 0.00 in0.0 mm 0.00 in0.0 mm 0.00 in0.0 mm
08:50 AM 40.3°F4.6°C 38.1°F3.4°C 92% 5.9 mph SE9.5 kmh SE 10.1 mph16.3 kmh 29.70 in1005.8 mb 0.00 in0.0 mm 0.00 in0.0 mm 0.00 in0.0 mm
09:00 AM 40.6°F4.8°C 38.2°F3.4°C 91% 4.9 mph SE7.9 kmh SE 7.6 mph12.2 kmh 29.69 in1005.4 mb 0.00 in0.0 mm 0.00 in0.0 mm 0.00 in0.0 mm
09:10 AM 41.2°F5.1°C 38.8°F3.8°C 91% 4.4 mph SSE7.1 kmh SSE 6.6 mph10.6 kmh 29.69 in1005.4 mb 0.00 in0.0 mm 0.00 in0.0 mm 0.00 in0.0 mm
09:20 AM 41.7°F5.4°C 39.0°F3.9°C 90% 5.5 mph SE8.9 kmh SE 8.4 mph13.5 kmh 29.68 in1005.1 mb 0.00 in0.0 mm 0.00 in0.0 mm 0.00 in0.0 mm
09:30 AM 42.4°F5.8°C 39.1°F3.9°C 88% 5.2 mph S8.4 kmh S 9.1 mph14.6 kmh 29.69 in1005.4 mb 0.00 in0.0 mm 0.00 in0.0 mm 0.00 in0.0 mm
09:40 AM 43.5°F6.4°C 38.7°F3.7°C 83% 6.0 mph SSW9.7 kmh SSW 10.1 mph16.3 kmh 29.68 in1005.1 mb 0.00 in0.0 mm 0.00 in0.0 mm 0.00 in0.0 mm
09:50 AM 46.8°F8.2°C 40.9°F4.9°C 80% 6.4 mph S10.3 kmh S 10.8 mph17.4 kmh 29.68 in1005.1 mb 0.00 in0.0 mm 0.00 in0.0 mm 0.00 in0.0 mm
10:00 AM 48.4°F9.1°C 40.8°F4.9°C 75% 5.1 mph SSE8.2 kmh SSE 6.6 mph10.6 kmh 29.67 in1004.7 mb 0.00 in0.0 mm 0.00 in0.0 mm 0.00 in0.0 mm
10:10 AM 48.7°F9.3°C 40.8°F4.9°C 74% 6.8 mph SSW10.9 kmh SSW 14.3 mph23.0 kmh 29.66 in1004.4 mb 0.00 in0.0 mm 0.00 in0.0 mm 0.00 in0.0 mm
10:20 AM 49.3°F9.6°C 41.3°F5.2°C 74% 5.1 mph SE8.2 kmh SE 10.1 mph16.3 kmh 29.67 in1004.7 mb 0.00 in0.0 mm 0.00 in0.0 mm 0.00 in0.0 mm
10:30 AM 49.5°F9.7°C 41.2°F5.1°C 73% 5.4 mph SSW8.7 kmh SSW 9.1 mph14.6 kmh 29.66 in1004.4 mb 0.00 in0.0 mm 0.00 in0.0 mm 0.00 in0.0 mm
10:40 AM 49.8°F9.9°C 41.9°F5.5°C 74% 6.0 mph SE9.7 kmh SE 8.4 mph13.5 kmh 29.65 in1004.1 mb 0.00 in0.0 mm 0.00 in0.0 mm 0.00 in0.0 mm
10:50 AM 50.5°F10.3°C 42.2°F5.7°C 73% 7.6 mph SSE12.2 kmh SSE 9.1 mph14.6 kmh 29.65 in1004.1 mb 0.00 in0.0 mm 0.00 in0.0 mm 0.00 in0.0 mm
11:00 AM 49.6°F9.8°C 41.3°F5.2°C 73% 4.7 mph SSE7.6 kmh SSE 8.4 mph13.5 kmh 29.65 in1004.1 mb 0.00 in0.0 mm 0.00 in0.0 mm 0.00 in0.0 mm
11:10 AM 51.3°F10.7°C 42.9°F6.1°C 73% 4.5 mph SW7.2 kmh SW 6.6 mph10.6 kmh 29.65 in1004.1 mb 0.00 in0.0 mm 0.00 in0.0 mm 0.00 in0.0 mm
11:20 AM 51.8°F11.0°C 41.2°F5.1°C 67% 6.7 mph S10.8 kmh S 9.1 mph14.6 kmh 29.64 in1003.7 mb 0.00 in0.0 mm 0.00 in0.0 mm 0.00 in0.0 mm
11:30 AM 51.6°F10.9°C 42.9°F6.1°C 72% 7.3 mph SE11.7 kmh SE 11.8 mph19.0 kmh 29.63 in1003.4 mb 0.00 in0.0 mm 0.00 in0.0 mm 0.00 in0.0 mm
11:40 AM 52.7°F11.5°C 42.0°F5.6°C 67% 5.5 mph SE8.9 kmh SE 8.4 mph13.5 kmh 29.63 in1003.4 mb 0.00 in0.0 mm 0.00 in0.0 mm 0.00 in0.0 mm
11:50 AM 53.1°F11.7°C 42.0°F5.6°C 66% 7.1 mph SSE11.4 kmh SSE 12.5 mph20.1 kmh 29.62 in1003.0 mb 0.00 in0.0 mm 0.00 in0.0 mm 0.00 in0.0 mm
12:00 PM 53.2°F11.8°C 41.4°F5.2°C 64% 8.4 mph SW13.5 kmh SW 12.5 mph20.1 kmh 29.62 in1003.0 mb 0.00 in0.0 mm 0.00 in0.0 mm 0.00 in0.0 mm
12:10 PM 53.1°F11.7°C 40.8°F4.9°C 63% 8.5 mph SW13.7 kmh SW 16.0 mph25.7 kmh 29.62 in1003.0 mb 0.00 in0.0 mm 0.00 in0.0 mm 0.00 in0.0 mm
12:20 PM 52.9°F11.6°C 41.0°F5.0°C 64% 9.4 mph S15.1 kmh S 12.5 mph20.1 kmh 29.62 in1003.0 mb 0.00 in0.0 mm 0.00 in0.0 mm 0.00 in0.0 mm
12:30 PM 52.5°F11.4°C 40.7°F4.8°C 64% 7.2 mph SSW11.6 kmh SSW 15.0 mph24.1 kmh 29.61 in1002.7 mb 0.00 in0.0 mm 0.00 in0.0 mm 0.00 in0.0 mm
12:40 PM 52.0°F11.1°C 40.6°F4.8°C 65% 8.6 mph SSE13.8 kmh SSE 10.8 mph17.4 kmh 29.61 in1002.7 mb 0.00 in0.0 mm 0.00 in0.0 mm 0.00 in0.0 mm
12:50 PM 52.9°F11.6°C 41.4°F5.2°C 65% 9.6 mph S15.4 kmh S 13.3 mph21.4 kmh 29.61 in1002.7 mb 0.00 in0.0 mm 0.00 in0.0 mm 0.00 in0.0 mm
01:00 PM 53.1°F11.7°C 41.2°F5.1°C 64% 7.9 mph SE12.7 kmh SE 14.3 mph23.0 kmh 29.60 in1002.4 mb 0.00 in0.0 mm 0.00 in0.0 mm 0.00 in0.0 mm
01:10 PM 52.2°F11.2°C 39.9°F4.4°C 63% 4.0 mph E6.4 kmh E 9.1 mph14.6 kmh 29.59 in1002.0 mb 0.00 in0.0 mm 0.00 in0.0 mm 0.00 in0.0 mm
01:20 PM 51.4°F10.8°C 40.5°F4.7°C 66% 10.3 mph SW16.6 kmh SW 11.8 mph19.0 kmh 29.59 in1002.0 mb 0.00 in0.0 mm 0.00 in0.0 mm 0.00 in0.0 mm
01:30 PM 50.9°F10.5°C 40.3°F4.6°C 67% 9.0 mph SE14.5 kmh SE 13.3 mph21.4 kmh 29.59 in1002.0 mb 0.00 in0.0 mm 0.00 in0.0 mm 0.00 in0.0 mm
01:40 PM 51.4°F10.8°C 40.5°F4.7°C 66% 10.5 mph SW16.9 kmh SW 15.0 mph24.1 kmh 29.59 in1002.0 mb 0.00 in0.0 mm 0.00 in0.0 mm 0.00 in0.0 mm
01:50 PM 51.4°F10.8°C 40.1°F4.5°C 65% 8.9 mph S14.3 kmh S 13.3 mph21.4 kmh 29.58 in1001.7 mb 0.00 in0.0 mm 0.00 in0.0 mm 0.00 in0.0 mm
02:00 PM 50.7°F10.4°C 39.4°F4.1°C 65% 9.9 mph SW15.9 kmh SW 16.7 mph26.9 kmh 29.58 in1001.7 mb 0.00 in0.0 mm 0.00 in0.0 mm 0.00 in0.0 mm
02:10 PM 50.5°F10.3°C 39.2°F4.0°C 65% 11.1 mph W17.9 kmh W 17.5 mph28.2 kmh 29.57 in1001.4 mb 0.00 in0.0 mm 0.00 in0.0 mm 0.00 in0.0 mm
02:20 PM 50.2°F10.1°C 38.9°F3.8°C 65% 9.6 mph WNW15.4 kmh WNW 12.5 mph20.1 kmh 29.57 in1001.4 mb 0.00 in0.0 mm 0.00 in0.0 mm 0.00 in0.0 mm
02:30 PM 50.0°F10.0°C 38.3°F3.5°C 64% 9.0 mph SE14.5 kmh SE 14.3 mph23.0 kmh 29.56 in1001.0 mb 0.00 in0.0 mm 0.00 in0.0 mm 0.00 in0.0 mm
02:40 PM 49.1°F9.5°C 37.8°F3.2°C 65% 7.9 mph WNW12.7 kmh WNW 10.1 mph16.3 kmh 29.56 in1001.0 mb 0.00 in0.0 mm 0.00 in0.0 mm 0.00 in0.0 mm
02:50 PM 48.7°F9.3°C 38.3°F3.5°C 67% 6.1 mph E9.8 kmh E 10.8 mph17.4 kmh 29.55 in1000.7 mb 0.00 in0.0 mm 0.00 in0.0 mm 0.00 in0.0 mm
03:00 PM 48.6°F9.2°C 37.7°F3.2°C 66% 6.8 mph SE10.9 kmh SE 15.0 mph24.1 kmh 29.55 in1000.7 mb 0.00 in0.0 mm 0.00 in0.0 mm 0.00 in0.0 mm
03:10 PM 49.1°F9.5°C 37.8°F3.2°C 65% 10.2 mph S16.4 kmh S 13.3 mph21.4 kmh 29.55 in1000.7 mb 0.00 in0.0 mm 0.00 in0.0 mm 0.00 in0.0 mm
03:20 PM 49.3°F9.6°C 38.0°F3.3°C 65% 6.7 mph S10.8 kmh S 10.8 mph17.4 kmh 29.54 in1000.3 mb 0.00 in0.0 mm 0.00 in0.0 mm 0.00 in0.0 mm
03:30 PM 48.4°F9.1°C 37.5°F3.1°C 66% 9.6 mph S15.4 kmh S 12.5 mph20.1 kmh 29.55 in1000.7 mb 0.00 in0.0 mm 0.00 in0.0 mm 0.00 in0.0 mm
03:40 PM 48.2°F9.0°C 37.4°F3.0°C 66% 8.0 mph SSE12.9 kmh SSE 13.3 mph21.4 kmh 29.54 in1000.3 mb 0.00 in0.0 mm 0.00 in0.0 mm 0.00 in0.0 mm
03:50 PM 47.5°F8.6°C 37.4°F3.0°C 68% 6.6 mph SSE10.6 kmh SSE 8.4 mph13.5 kmh 29.53 in1000.0 mb 0.00 in0.0 mm 0.00 in0.0 mm 0.00 in0.0 mm
04:00 PM 46.9°F8.3°C 37.7°F3.2°C 70% 9.4 mph SSW15.1 kmh SSW 11.8 mph19.0 kmh 29.53 in1000.0 mb 0.00 in0.0 mm 0.00 in0.0 mm 0.00 in0.0 mm
04:10 PM 46.8°F8.2°C 38.2°F3.4°C 72% 8.4 mph S13.5 kmh S 14.3 mph23.0 kmh 29.53 in1000.0 mb 0.00 in0.0 mm 0.00 in0.0 mm 0.00 in0.0 mm
04:20 PM 46.9°F8.3°C 38.4°F3.6°C 72% 8.8 mph SE14.2 kmh SE 11.8 mph19.0 kmh 29.52 in999.7 mb 0.00 in0.0 mm 0.00 in0.0 mm 0.00 in0.0 mm
04:30 PM 46.2°F7.9°C 38.0°F3.3°C 73% 8.6 mph SSE13.8 kmh SSE 13.3 mph21.4 kmh 29.52 in999.7 mb 0.00 in0.0 mm 0.00 in0.0 mm 0.00 in0.0 mm
04:40 PM 45.5°F7.5°C 37.7°F3.2°C 74% 6.3 mph E10.1 kmh E 10.1 mph16.3 kmh 29.51 in999.3 mb 0.00 in0.0 mm 0.00 in0.0 mm 0.00 in0.0 mm
04:50 PM 45.1°F7.3°C 38.0°F3.3°C 76% 5.9 mph ESE9.5 kmh ESE 8.4 mph13.5 kmh 29.51 in999.3 mb 0.00 in0.0 mm 0.00 in0.0 mm 0.00 in0.0 mm
05:00 PM 45.0°F7.2°C 37.8°F3.2°C 76% 6.1 mph SE9.8 kmh SE 8.4 mph13.5 kmh 29.52 in999.7 mb 0.00 in0.0 mm 0.00 in0.0 mm 0.00 in0.0 mm
05:10 PM 44.6°F7.0°C 37.8°F3.2°C 77% 6.0 mph SSW9.7 kmh SSW 10.1 mph16.3 kmh 29.52 in999.7 mb 0.00 in0.0 mm 0.00 in0.0 mm 0.00 in0.0 mm
05:20 PM 44.4°F6.9°C 38.0°F3.3°C 78% 5.5 mph SW8.9 kmh SW 7.6 mph12.2 kmh 29.52 in999.7 mb 0.00 in0.0 mm 0.00 in0.0 mm 0.00 in0.0 mm
05:30 PM 44.1°F6.7°C 37.6°F3.1°C 78% 6.8 mph SSE10.9 kmh SSE 13.3 mph21.4 kmh 29.52 in999.7 mb 0.00 in0.0 mm 0.00 in0.0 mm 0.00 in0.0 mm
05:40 PM 43.9°F6.6°C 37.8°F3.2°C 79% 6.9 mph E11.1 kmh E 9.1 mph14.6 kmh 29.51 in999.3 mb 0.00 in0.0 mm 0.00 in0.0 mm 0.00 in0.0 mm
05:50 PM 43.5°F6.4°C 37.8°F3.2°C 80% 5.6 mph S9.0 kmh S 10.1 mph16.3 kmh 29.52 in999.7 mb 0.00 in0.0 mm 0.00 in0.0 mm 0.00 in0.0 mm
06:00 PM 43.2°F6.2°C 37.7°F3.2°C 81% 5.5 mph SSE8.9 kmh SSE 9.1 mph14.6 kmh 29.51 in999.3 mb 0.00 in0.0 mm 0.00 in0.0 mm 0.00 in0.0 mm
06:10 PM 42.4°F5.8°C 37.9°F3.3°C 84% 3.8 mph WNW6.1 kmh WNW 8.4 mph13.5 kmh 29.51 in999.3 mb 0.00 in0.0 mm 0.00 in0.0 mm 0.00 in0.0 mm
06:20 PM 42.1°F5.6°C 37.9°F3.3°C 85% 3.9 mph NNW6.3 kmh NNW 5.9 mph9.5 kmh 29.51 in999.3 mb 0.00 in0.0 mm 0.00 in0.0 mm 0.00 in0.0 mm
06:30 PM 41.9°F5.5°C 38.3°F3.5°C 87% 4.3 mph WSW6.9 kmh WSW 6.6 mph10.6 kmh 29.50 in999.0 mb 0.00 in0.0 mm 0.00 in0.0 mm 0.00 in0.0 mm
06:40 PM 41.7°F5.4°C 38.1°F3.4°C 87% 4.8 mph S7.7 kmh S 6.6 mph10.6 kmh 29.50 in999.0 mb 0.00 in0.0 mm 0.00 in0.0 mm 0.00 in0.0 mm
06:50 PM 41.7°F5.4°C 38.4°F3.6°C 88% 4.1 mph SSE6.6 kmh SSE 4.9 mph7.9 kmh 29.49 in998.6 mb 0.00 in0.0 mm 0.00 in0.0 mm 0.00 in0.0 mm
07:00 PM 41.9°F5.5°C 38.6°F3.7°C 88% 5.4 mph NW8.7 kmh NW 9.1 mph14.6 kmh 29.49 in998.6 mb 0.00 in0.0 mm 0.00 in0.0 mm 0.00 in0.0 mm
07:10 PM 41.9°F5.5°C 38.6°F3.7°C 88% 5.6 mph NW9.0 kmh NW 5.9 mph9.5 kmh 29.49 in998.6 mb 0.00 in0.0 mm 0.00 in0.0 mm 0.00 in0.0 mm
07:20 PM 41.7°F5.4°C 38.4°F3.6°C 88% 5.3 mph NW8.5 kmh NW 7.6 mph12.2 kmh 29.48 in998.3 mb 0.00 in0.0 mm 0.00 in0.0 mm 0.00 in0.0 mm
07:30 PM 41.5°F5.3°C 38.3°F3.5°C 88% 5.8 mph WSW9.3 kmh WSW 8.4 mph13.5 kmh 29.48 in998.3 mb 0.00 in0.0 mm 0.00 in0.0 mm 0.00 in0.0 mm
07:40 PM 41.5°F5.3°C 38.3°F3.5°C 88% 5.8 mph NW9.3 kmh NW 8.4 mph13.5 kmh 29.48 in998.3 mb 0.00 in0.0 mm 0.00 in0.0 mm 0.00 in0.0 mm
07:50 PM 41.4°F5.2°C 38.1°F3.4°C 88% 5.8 mph SW9.3 kmh SW 10.1 mph16.3 kmh 29.48 in998.3 mb 0.00 in0.0 mm 0.00 in0.0 mm 0.00 in0.0 mm
08:00 PM 41.4°F5.2°C 38.1°F3.4°C 88% 5.1 mph SW8.2 kmh SW 8.4 mph13.5 kmh 29.47 in998.0 mb 0.00 in0.0 mm 0.00 in0.0 mm 0.00 in0.0 mm
08:10 PM 41.2°F5.1°C 38.2°F3.4°C 89% 6.1 mph SSW9.8 kmh SSW 10.1 mph16.3 kmh 29.47 in998.0 mb 0.00 in0.0 mm 0.00 in0.0 mm 0.00 in0.0 mm
08:20 PM 41.0°F5.0°C 38.0°F3.3°C 89% 5.4 mph WSW8.7 kmh WSW 6.6 mph10.6 kmh 29.46 in997.6 mb 0.00 in0.0 mm 0.00 in0.0 mm 0.00 in0.0 mm
08:30 PM 40.8°F4.9°C 37.8°F3.2°C 89% 5.7 mph S9.2 kmh S 8.4 mph13.5 kmh 29.46 in997.6 mb 0.00 in0.0 mm 0.00 in0.0 mm 0.00 in0.0 mm
08:40 PM 40.8°F4.9°C 37.8°F3.2°C 89% 5.8 mph S9.3 kmh S 8.4 mph13.5 kmh 29.46 in997.6 mb 0.00 in0.0 mm 0.00 in0.0 mm 0.00 in0.0 mm
08:50 PM 41.0°F5.0°C 38.0°F3.3°C 89% 6.2 mph WSW10.0 kmh WSW 8.4 mph13.5 kmh 29.45 in997.3 mb 0.00 in0.0 mm 0.00 in0.0 mm 0.00 in0.0 mm
09:00 PM 41.0°F5.0°C 37.7°F3.2°C 88% 6.0 mph NW9.7 kmh NW 7.6 mph12.2 kmh 29.44 in997.0 mb 0.00 in0.0 mm 0.00 in0.0 mm 0.00 in0.0 mm
09:10 PM 41.2°F5.1°C 37.9°F3.3°C 88% 5.2 mph NW8.4 kmh NW 6.6 mph10.6 kmh 29.44 in997.0 mb 0.00 in0.0 mm 0.00 in0.0 mm 0.00 in0.0 mm
09:20 PM 41.2°F5.1°C 37.9°F3.3°C 88% 6.7 mph N10.8 kmh N 10.8 mph17.4 kmh 29.43 in996.6 mb 0.00 in0.0 mm 0.00 in0.0 mm 0.00 in0.0 mm
09:30 PM 41.0°F5.0°C 37.7°F3.2°C 88% 6.3 mph ESE10.1 kmh ESE 10.1 mph16.3 kmh 29.43 in996.6 mb 0.00 in0.0 mm 0.00 in0.0 mm 0.00 in0.0 mm
09:40 PM 41.0°F5.0°C 38.0°F3.3°C 89% 6.0 mph NW9.7 kmh NW 6.6 mph10.6 kmh 29.42 in996.3 mb 0.00 in0.0 mm 0.00 in0.0 mm 0.00 in0.0 mm
09:50 PM 41.0°F5.0°C 38.0°F3.3°C 89% 5.8 mph S9.3 kmh S 8.4 mph13.5 kmh 29.42 in996.3 mb 0.00 in0.0 mm 0.00 in0.0 mm 0.00 in0.0 mm
10:00 PM 40.8°F4.9°C 37.8°F3.2°C 89% 4.8 mph SW7.7 kmh SW 7.6 mph12.2 kmh 29.42 in996.3 mb 0.00 in0.0 mm 0.00 in0.0 mm 0.00 in0.0 mm
10:10 PM 40.6°F4.8°C 37.9°F3.3°C 90% 6.9 mph N11.1 kmh N 7.6 mph12.2 kmh 29.41 in995.9 mb 0.00 in0.0 mm 0.00 in0.0 mm 0.00 in0.0 mm
10:20 PM 40.5°F4.7°C 37.8°F3.2°C 90% 6.4 mph NNE10.3 kmh NNE 9.1 mph14.6 kmh 29.41 in995.9 mb 0.00 in0.0 mm 0.00 in0.0 mm 0.00 in0.0 mm
10:30 PM 40.6°F4.8°C 38.2°F3.4°C 91% 6.2 mph NNE10.0 kmh NNE 9.1 mph14.6 kmh 29.41 in995.9 mb 0.00 in0.0 mm 0.00 in0.0 mm 0.00 in0.0 mm
10:40 PM 40.6°F4.8°C 38.2°F3.4°C 91% 7.9 mph NW12.7 kmh NW 10.8 mph17.4 kmh 29.41 in995.9 mb 0.00 in0.0 mm 0.00 in0.0 mm 0.00 in0.0 mm
10:50 PM 40.6°F4.8°C 38.2°F3.4°C 91% 6.4 mph E10.3 kmh E 7.6 mph12.2 kmh 29.40 in995.6 mb 0.00 in0.0 mm 0.00 in0.0 mm 0.00 in0.0 mm
11:00 PM 40.8°F4.9°C 38.4°F3.6°C 91% 6.0 mph S9.7 kmh S 10.1 mph16.3 kmh 29.39 in995.3 mb 0.00 in0.0 mm 0.00 in0.0 mm 0.00 in0.0 mm
11:10 PM 40.8°F4.9°C 38.4°F3.6°C 91% 4.6 mph SSW7.4 kmh SSW 8.4 mph13.5 kmh 29.39 in995.3 mb 0.00 in0.0 mm 0.00 in0.0 mm 0.00 in0.0 mm
11:20 PM 40.6°F4.8°C 38.2°F3.4°C 91% 5.6 mph NE9.0 kmh NE 7.6 mph12.2 kmh 29.38 in994.9 mb 0.00 in0.0 mm 0.00 in0.0 mm 0.00 in0.0 mm
11:30 PM 40.5°F4.7°C 38.0°F3.3°C 91% 4.7 mph E7.6 kmh E 6.6 mph10.6 kmh 29.38 in994.9 mb 0.00 in0.0 mm 0.00 in0.0 mm 0.00 in0.0 mm
11:40 PM 40.5°F4.7°C 38.0°F3.3°C 91% 6.3 mph SSW10.1 kmh SSW 10.1 mph16.3 kmh 29.37 in994.6 mb 0.00 in0.0 mm 0.00 in0.0 mm 0.00 in0.0 mm
11:50 PM 40.5°F4.7°C 38.0°F3.3°C 91% 5.4 mph W8.7 kmh W 10.1 mph16.3 kmh 29.37 in994.6 mb 0.00 in0.0 mm 0.00 in0.0 mm 0.00 in0.0 mm